Time;durP1;ratioP1;P1;durP2;ratioP2;P2;SDS_P1;SDS_P2;PMS_P1;PMS_P2;Temp;Humidity;BMP_temperature;BMP_pressure;BME280_temperature;BME280_humidity;BME280_pressure;Samples;Min_cycle;Max_cycle;Signal;HPM_P1;HPM_P2
2021/10/03 00:02:34;;;;;;;22.48;14.95;;;15.70;99.90;;;;;;4999105;28;20045;-67
2021/10/03 00:05:38;;;;;;;21.45;14.18;;;15.70;99.90;;;;;;5011229;28;20061;-66
2021/10/03 00:08:42;;;;;;;21.73;13.45;;;15.60;99.90;;;;;;5010771;28;20393;-66
2021/10/03 00:11:46;;;;;;;26.45;14.52;;;15.60;99.90;;;;;;5011083;28;20041;-66
2021/10/03 00:14:50;;;;;;;26.63;14.95;;;15.50;99.90;;;;;;5010816;28;20053;-66
2021/10/03 00:17:56;;;;;;;21.42;14.48;;;15.40;99.90;;;;;;5011034;28;20048;-66
2021/10/03 00:21:00;;;;;;;29.48;15.57;;;15.40;99.90;;;;;;5010909;28;20392;-66
2021/10/03 00:24:04;;;;;;;24.63;15.00;;;15.40;99.90;;;;;;5010862;28;20041;-66
2021/10/03 00:27:09;;;;;;;31.67;15.77;;;15.50;99.90;;;;;;5011141;28;20037;-67
2021/10/03 00:30:16;;;;;;;22.08;13.93;;;15.40;99.90;;;;;;4998633;28;20068;-66
2021/10/03 00:33:20;;;;;;;23.15;14.85;;;15.40;99.90;;;;;;5011026;28;20128;-66
2021/10/03 00:36:24;;;;;;;29.13;17.85;;;15.30;99.90;;;;;;5010908;28;20392;-66
2021/10/03 00:39:28;;;;;;;34.65;18.35;;;15.10;99.90;;;;;;5010432;28;20053;-66
2021/10/03 00:42:32;;;;;;;75.50;22.83;;;15.00;99.90;;;;;;5011079;28;20048;-66
2021/10/03 00:45:38;;;;;;;67.90;24.25;;;14.80;99.90;;;;;;5010602;28;20378;-66
2021/10/03 00:48:42;;;;;;;34.33;17.75;;;14.80;99.90;;;;;;5010167;28;20040;-66
2021/10/03 00:51:46;;;;;;;53.63;18.33;;;14.70;99.90;;;;;;5010665;28;20041;-66
2021/10/03 00:54:51;;;;;;;175.77;21.73;;;14.60;99.90;;;;;;5010462;28;20421;-66
2021/10/03 00:57:57;;;;;;;87.57;19.70;;;14.50;99.90;;;;;;5010011;28;20126;-66
2021/10/03 01:01:01;;;;;;;38.28;16.65;;;14.50;99.90;;;;;;5010422;28;20507;-66
2021/10/03 01:04:06;;;;;;;109.82;21.85;;;14.40;99.90;;;;;;5010213;28;20041;-67
2021/10/03 01:07:10;;;;;;;53.55;20.13;;;14.40;99.90;;;;;;5010252;28;20037;-66
2021/10/03 01:10:20;;;;;;;37.85;21.60;;;14.40;99.90;;;;;;5009804;28;20527;-66
2021/10/03 01:13:24;;;;;;;36.72;20.25;;;14.40;99.90;;;;;;5010317;28;20044;-66
2021/10/03 01:16:28;;;;;;;34.95;20.05;;;14.40;99.90;;;;;;5010144;28;20153;-66
2021/10/03 01:19:33;;;;;;;39.50;19.33;;;14.40;99.90;;;;;;5009547;28;20412;-66
2021/10/03 01:22:37;;;;;;;31.42;18.73;;;14.50;99.90;;;;;;5010018;28;20131;-66
2021/10/03 01:25:46;;;;;;;32.97;19.40;;;14.60;99.90;;;;;;5010148;28;20040;-66
2021/10/03 01:28:53;;;;;;;28.52;16.73;;;14.60;99.90;;;;;;5009715;28;20033;-66
2021/10/03 01:31:57;;;;;;;27.95;17.77;;;14.70;99.90;;;;;;5010233;28;20049;-66
2021/10/03 01:35:03;;;;;;;32.67;17.58;;;14.80;99.90;;;;;;5009827;28;20061;-66
2021/10/03 01:38:07;;;;;;;28.63;17.35;;;14.80;99.90;;;;;;5009556;28;20045;-66
2021/10/03 01:41:11;;;;;;;25.30;16.80;;;14.80;99.90;;;;;;5009962;28;20045;-67
2021/10/03 01:44:15;;;;;;;30.20;16.20;;;14.80;99.90;;;;;;5009969;28;20033;-66
2021/10/03 01:47:19;;;;;;;27.95;16.80;;;14.80;99.90;;;;;;5009951;28;20053;-66
2021/10/03 01:50:23;;;;;;;30.38;17.20;;;14.80;99.90;;;;;;5009397;28;20074;-67
2021/10/03 01:53:34;;;;;;;23.25;15.68;;;14.80;99.90;;;;;;5009862;28;20389;-66
2021/10/03 01:56:40;;;;;;;27.83;17.27;;;14.80;99.90;;;;;;5009724;28;20041;-66
2021/10/03 01:59:44;;;;;;;26.23;16.85;;;14.80;99.90;;;;;;5009202;28;20400;-66
2021/10/03 02:02:56;;;;;;;26.30;16.13;;;14.90;99.90;;;;;;5009756;28;20045;-66
2021/10/03 02:06:00;;;;;;;24.38;15.60;;;14.90;99.90;;;;;;5009872;28;20045;-66
2021/10/03 02:09:04;;;;;;;25.33;16.23;;;15.00;99.90;;;;;;5010435;28;20045;-67
2021/10/03 02:12:12;;;;;;;28.73;16.27;;;15.00;99.90;;;;;;5013699;28;20508;-66
2021/10/03 02:15:17;;;;;;;26.27;15.27;;;15.00;99.90;;;;;;5013413;28;20401;-66
2021/10/03 02:18:21;;;;;;;25.50;14.82;;;15.00;99.90;;;;;;5013433;28;20065;-66
2021/10/03 02:21:27;;;;;;;27.73;14.77;;;15.10;99.90;;;;;;5013267;28;20070;-66
2021/10/03 02:24:31;;;;;;;27.08;15.85;;;15.10;99.90;;;;;;5013563;28;20049;-66
2021/10/03 02:27:35;;;;;;;25.77;15.73;;;14.90;99.90;;;;;;5013611;28;20045;-66
2021/10/03 02:30:41;;;;;;;26.45;15.10;;;14.70;99.90;;;;;;5001294;28;20041;-66
2021/10/03 02:33:49;;;;;;;26.60;16.15;;;14.50;99.90;;;;;;5013195;28;20125;-66
2021/10/03 02:36:53;;;;;;;23.88;15.15;;;14.30;99.90;;;;;;5013010;28;20504;-66
2021/10/03 02:39:57;;;;;;;28.38;15.95;;;14.30;99.90;;;;;;5012253;28;20057;-66
2021/10/03 02:43:05;;;;;;;27.02;15.77;;;14.20;99.90;;;;;;5013172;28;20413;-66
2021/10/03 02:46:10;;;;;;;28.20;16.63;;;14.20;99.90;;;;;;5012551;28;20048;-66
2021/10/03 02:49:14;;;;;;;25.27;16.65;;;14.10;99.90;;;;;;5012157;28;20067;-66
2021/10/03 02:52:19;;;;;;;29.15;18.02;;;14.20;99.90;;;;;;5012756;28;20052;-66
2021/10/03 02:55:24;;;;;;;25.40;15.40;;;14.20;99.90;;;;;;5012260;28;20129;-66
2021/10/03 02:58:29;;;;;;;25.67;16.02;;;14.30;99.90;;;;;;5012127;28;20057;-66
2021/10/03 03:01:33;;;;;;;23.92;15.93;;;14.40;99.90;;;;;;5012501;28;20069;-66
2021/10/03 03:04:37;;;;;;;27.75;16.02;;;14.50;99.90;;;;;;5012427;28;20045;-66
2021/10/03 03:07:41;;;;;;;29.27;16.85;;;14.60;99.90;;;;;;5012602;28;20044;-66
2021/10/03 03:10:45;;;;;;;28.23;15.82;;;14.60;99.90;;;;;;5012201;28;20049;-66
2021/10/03 03:13:49;;;;;;;28.40;16.45;;;14.70;99.90;;;;;;5012312;28;20113;-67
2021/10/03 03:16:53;;;;;;;26.42;15.60;;;14.60;99.90;;;;;;5012035;28;20503;-66
2021/10/03 03:19:57;;;;;;;27.70;15.55;;;14.50;99.90;;;;;;5011211;28;20427;-65
2021/10/03 03:23:01;;;;;;;31.05;16.20;;;14.30;99.90;;;;;;5012136;28;20495;-66
2021/10/03 03:26:05;;;;;;;25.80;14.52;;;14.20;99.90;;;;;;5011895;28;20041;-66
2021/10/03 03:29:09;;;;;;;28.02;16.17;;;14.00;99.90;;;;;;5011611;28;20488;-66
2021/10/03 03:32:13;;;;;;;29.42;18.30;;;13.90;99.90;;;;;;5011739;28;20057;-66
2021/10/03 03:35:17;;;;;;;29.42;16.35;;;13.80;99.90;;;;;;5011835;28;20045;-66
2021/10/03 03:38:22;;;;;;;30.17;16.63;;;13.70;99.90;;;;;;5011210;28;20686;-66
2021/10/03 03:41:26;;;;;;;28.73;15.52;;;13.60;99.90;;;;;;5011619;28;20049;-66
2021/10/03 03:44:31;;;;;;;28.05;17.15;;;13.60;99.90;;;;;;5011618;28;20474;-66
2021/10/03 03:47:36;;;;;;;30.58;18.10;;;13.50;99.90;;;;;;5011593;28;20081;-66
2021/10/03 03:50:41;;;;;;;30.67;18.50;;;13.50;99.90;;;;;;5011356;28;20044;-66
2021/10/03 03:53:44;;;;;;;35.67;19.02;;;13.50;99.90;;;;;;5011481;28;20053;-66
2021/10/03 03:56:49;;;;;;;30.85;17.73;;;13.40;99.90;;;;;;5011301;28;20053;-66
2021/10/03 03:59:52;;;;;;;31.73;18.15;;;13.40;99.90;;;;;;5011009;28;20496;-66
2021/10/03 04:02:56;;;;;;;29.38;16.17;;;13.50;99.90;;;;;;5011281;28;20041;-66
2021/10/03 04:06:00;;;;;;;31.05;17.30;;;13.50;99.90;;;;;;5011226;28;20053;-66
2021/10/03 04:09:06;;;;;;;33.38;18.05;;;13.50;99.90;;;;;;5011070;28;20049;-66
2021/10/03 04:12:10;;;;;;;34.00;18.73;;;13.50;99.90;;;;;;5011636;28;20520;-66
2021/10/03 04:15:14;;;;;;;27.73;17.00;;;13.50;99.90;;;;;;5011408;28;20410;-66
2021/10/03 04:18:18;;;;;;;30.88;17.08;;;13.50;99.90;;;;;;5010444;28;20153;-66
2021/10/03 04:21:22;;;;;;;28.00;15.95;;;13.60;99.90;;;;;;5010937;28;20121;-65
2021/10/03 04:24:26;;;;;;;23.50;14.90;;;13.50;99.90;;;;;;5011144;28;20056;-66
2021/10/03 04:27:30;;;;;;;22.55;14.38;;;13.30;99.90;;;;;;5011292;28;20389;-66
2021/10/03 04:30:34;;;;;;;34.00;15.85;;;13.10;99.90;;;;;;5009133;28;20048;-65
2021/10/03 04:33:41;;;;;;;25.95;14.55;;;13.10;99.90;;;;;;5010629;28;20033;-66
2021/10/03 04:36:45;;;;;;;27.02;16.13;;;13.00;99.90;;;;;;5010549;28;20060;-66
2021/10/03 04:39:50;;;;;;;24.40;15.18;;;12.90;99.90;;;;;;5010177;28;20056;-66
2021/10/03 04:42:54;;;;;;;27.50;15.38;;;12.90;99.90;;;;;;5010568;28;20057;-66
2021/10/03 04:45:58;;;;;;;27.20;16.42;;;12.90;99.90;;;;;;5008842;28;20420;-66
2021/10/03 04:49:02;;;;;;;28.30;16.35;;;12.90;99.90;;;;;;4998781;28;20048;-66
2021/10/03 04:52:06;;;;;;;31.80;17.13;;;13.00;99.90;;;;;;5011282;28;20045;-66
2021/10/03 04:55:11;;;;;;;30.15;16.95;;;13.10;99.90;;;;;;5010863;28;20036;-66
2021/10/03 04:58:15;;;;;;;29.42;17.35;;;13.10;99.90;;;;;;5010847;28;20113;-66
2021/10/03 05:01:19;;;;;;;25.35;15.65;;;13.20;99.90;;;;;;5010690;28;20412;-66
2021/10/03 05:04:23;;;;;;;31.27;17.45;;;13.30;99.90;;;;;;5010976;28;20037;-66
2021/10/03 05:07:27;;;;;;;38.92;20.08;;;13.30;99.90;;;;;;5011248;28;20109;-66
2021/10/03 05:10:31;;;;;;;35.17;18.45;;;13.30;99.90;;;;;;5010694;28;20086;-66
2021/10/03 05:13:35;;;;;;;33.95;19.77;;;13.30;99.90;;;;;;5010885;28;20045;-66
2021/10/03 05:16:39;;;;;;;34.47;19.52;;;13.40;99.90;;;;;;5010774;28;20034;-66
2021/10/03 05:19:43;;;;;;;37.35;19.10;;;13.40;99.90;;;;;;5010633;28;20041;-66
2021/10/03 05:22:47;;;;;;;33.92;19.65;;;13.40;99.90;;;;;;5010671;28;20113;-66
2021/10/03 05:25:51;;;;;;;32.17;18.23;;;13.40;99.90;;;;;;5010927;28;20036;-66
2021/10/03 05:28:55;;;;;;;36.97;18.25;;;13.40;99.90;;;;;;5010445;28;20117;-66
2021/10/03 05:32:00;;;;;;;31.13;17.70;;;13.50;99.90;;;;;;5010752;28;20049;-66
2021/10/03 05:35:05;;;;;;;30.83;17.60;;;13.60;99.90;;;;;;5010857;28;20060;-66
2021/10/03 05:38:09;;;;;;;33.85;17.85;;;13.60;99.90;;;;;;5010149;28;20049;-66
2021/10/03 05:41:13;;;;;;;32.95;18.58;;;13.50;99.90;;;;;;5010485;28;20048;-66
2021/10/03 05:44:17;;;;;;;30.00;17.23;;;13.60;99.90;;;;;;5013605;28;20045;-66
2021/10/03 05:47:21;;;;;;;28.88;17.90;;;13.70;99.90;;;;;;5014785;28;20041;-66
2021/10/03 05:50:25;;;;;;;33.17;18.52;;;13.60;99.90;;;;;;5014428;28;20045;-67
2021/10/03 05:53:29;;;;;;;34.78;19.67;;;13.40;99.90;;;;;;5014430;28;20041;-67
2021/10/03 05:56:35;;;;;;;31.00;16.58;;;13.30;99.90;;;;;;5014308;28;20045;-67
2021/10/03 05:59:39;;;;;;;27.38;16.30;;;13.40;99.90;;;;;;5014129;28;20049;-66
2021/10/03 06:02:43;;;;;;;31.92;16.38;;;13.40;99.90;;;;;;5014401;28;20065;-67
2021/10/03 06:05:47;;;;;;;26.95;16.55;;;14.60;99.90;;;;;;5014124;28;20037;-66
2021/10/03 06:08:52;;;;;;;31.38;16.23;;;15.80;99.90;;;;;;5013849;28;20045;-66
2021/10/03 06:11:56;;;;;;;24.25;13.93;;;17.20;99.90;;;;;;5014030;28;20053;-66
2021/10/03 06:15:00;;;;;;;20.42;13.15;;;18.30;99.90;;;;;;5014048;28;20045;-67
2021/10/03 06:18:04;;;;;;;17.90;12.23;;;18.90;99.90;;;;;;5013625;28;20052;-66
2021/10/03 06:21:13;;;;;;;17.15;11.93;;;19.40;99.90;;;;;;5013758;28;20052;-67
2021/10/03 06:24:18;;;;;;;15.60;10.80;;;20.60;99.90;;;;;;5013912;28;20057;-67
2021/10/03 06:27:22;;;;;;;14.93;10.10;;;21.70;99.90;;;;;;5013946;28;20409;-67
2021/10/03 06:30:26;;;;;;;15.07;9.90;;;22.70;99.90;;;;;;5013595;28;20048;-66
2021/10/03 06:33:31;;;;;;;14.68;10.00;;;23.70;99.90;;;;;;5013811;28;20567;-66
2021/10/03 06:36:36;;;;;;;16.73;10.85;;;24.70;99.90;;;;;;5013587;28;20049;-67
2021/10/03 06:39:40;;;;;;;21.38;14.65;;;26.00;99.90;;;;;;5013088;28;20492;-67
2021/10/03 06:42:44;;;;;;;22.15;14.23;;;26.40;99.90;;;;;;5013562;28;20037;-66
2021/10/03 06:45:48;;;;;;;15.70;11.60;;;25.10;99.90;;;;;;5013025;28;20053;-66
2021/10/03 06:48:52;;;;;;;12.43;9.88;;;22.90;99.90;;;;;;5012856;28;20045;-67
2021/10/03 06:51:56;;;;;;;14.57;9.27;;;23.50;99.90;;;;;;5013222;28;20056;-67
2021/10/03 06:55:00;;;;;;;13.23;8.57;;;24.90;99.90;;;;;;5012494;28;20052;-67
2021/10/03 06:58:04;;;;;;;11.05;9.07;;;26.20;99.90;;;;;;5012908;28;20503;-67
2021/10/03 07:01:08;;;;;;;11.77;8.48;;;27.50;98.30;;;;;;5013318;28;20052;-67
2021/10/03 07:04:12;;;;;;;11.98;8.48;;;28.50;96.50;;;;;;5013270;28;20100;-67
2021/10/03 07:07:17;;;;;;;10.50;8.13;;;29.10;95.30;;;;;;5013427;28;20041;-67
2021/10/03 07:10:21;;;;;;;10.32;7.60;;;29.80;93.90;;;;;;5012729;28;20054;-68
2021/10/03 07:13:25;;;;;;;11.73;8.00;;;29.70;92.40;;;;;;5012829;28;20049;-67
2021/10/03 07:16:29;;;;;;;16.05;9.38;;;27.80;93.10;;;;;;5013020;28;20044;-67
2021/10/03 07:19:34;;;;;;;10.65;8.75;;;25.30;96.20;;;;;;5000358;28;20393;-67
2021/10/03 07:22:38;;;;;;;14.65;8.90;;;23.40;98.80;;;;;;5012856;28;20068;-67
2021/10/03 07:25:42;;;;;;;11.15;8.50;;;23.70;99.90;;;;;;5012811;28;20507;-67
2021/10/03 07:28:46;;;;;;;10.38;7.85;;;25.30;97.80;;;;;;5012360;28;20040;-66
2021/10/03 07:31:50;;;;;;;8.73;6.95;;;26.60;96.30;;;;;;5012966;28;20045;-67
2021/10/03 07:34:54;;;;;;;15.65;7.00;;;27.20;95.10;;;;;;5012697;28;20045;-67
2021/10/03 07:37:58;;;;;;;8.80;7.28;;;26.90;96.10;;;;;;5012464;28;20041;-66
2021/10/03 07:41:03;;;;;;;10.93;8.25;;;28.70;94.00;;;;;;5012452;28;20061;-66
2021/10/03 07:44:07;;;;;;;9.73;7.18;;;26.90;94.70;;;;;;5012539;28;20049;-66
2021/10/03 07:47:11;;;;;;;12.07;7.78;;;28.20;94.00;;;;;;5012482;28;20496;-67
2021/10/03 07:50:15;;;;;;;13.88;8.13;;;28.20;93.30;;;;;;5012238;28;20037;-66
2021/10/03 07:53:19;;;;;;;10.95;7.22;;;27.00;94.10;;;;;;5012540;28;20061;-66
2021/10/03 07:56:23;;;;;;;12.80;8.25;;;28.90;92.90;;;;;;5012165;28;20049;-67
2021/10/03 07:59:27;;;;;;;15.30;8.77;;;30.20;91.80;;;;;;5011705;28;20488;-66
2021/10/03 08:02:31;;;;;;;8.80;6.97;;;30.60;90.60;;;;;;5011898;28;20048;-66
2021/10/03 08:05:35;;;;;;;7.40;6.60;;;30.80;90.20;;;;;;5011991;28;20041;-67
2021/10/03 08:08:39;;;;;;;9.85;5.65;;;29.70;90.60;;;;;;5011361;28;20426;-66
2021/10/03 08:11:43;;;;;;;10.63;6.57;;;30.00;91.10;;;;;;5011764;28;20037;-66
2021/10/03 08:14:47;;;;;;;8.38;6.07;;;29.40;89.60;;;;;;5011832;28;20045;-66
2021/10/03 08:17:52;;;;;;;7.35;6.05;;;28.00;91.80;;;;;;5011566;28;20049;-67
2021/10/03 08:20:56;;;;;;;7.38;6.13;;;26.90;93.10;;;;;;5011500;28;20053;-67
2021/10/03 08:24:00;;;;;;;6.65;5.93;;;27.60;93.40;;;;;;4999330;28;20045;-66
2021/10/03 08:27:04;;;;;;;8.35;5.57;;;30.10;92.00;;;;;;5011829;28;20049;-66
2021/10/03 08:30:09;;;;;;;8.48;6.00;;;32.10;90.00;;;;;;5010788;28;20049;-68
2021/10/03 08:33:13;;;;;;;7.22;5.30;;;31.80;86.90;;;;;;5011513;28;20048;-67
2021/10/03 08:36:18;;;;;;;6.07;5.10;;;32.10;89.10;;;;;;5011241;28;20049;-66
2021/10/03 08:39:21;;;;;;;6.20;4.57;;;34.30;86.70;;;;;;5011058;28;20045;-67
2021/10/03 08:42:27;;;;;;;8.55;5.18;;;35.80;84.40;;;;;;5011374;28;20044;-67
2021/10/03 08:45:31;;;;;;;8.82;4.72;;;36.50;80.20;;;;;;5011152;28;20381;-67
2021/10/03 08:48:36;;;;;;;5.95;4.43;;;36.60;76.70;;;;;;5010829;28;20049;-66
2021/10/03 08:51:41;;;;;;;6.28;4.25;;;34.90;79.50;;;;;;5011195;28;20057;-66
2021/10/03 08:54:45;;;;;;;4.90;3.97;;;35.20;79.70;;;;;;5010814;28;20067;-67
2021/10/03 08:57:49;;;;;;;6.18;4.43;;;36.70;78.20;;;;;;5011044;28;20053;-66
2021/10/03 09:00:53;;;;;;;10.57;4.63;;;35.70;75.10;;;;;;5010885;28;20045;-66
2021/10/03 09:04:00;;;;;;;6.05;4.70;;;36.60;76.50;;;;;;5011033;28;20044;-67
2021/10/03 09:07:13;;;;;;;6.13;4.88;;;37.30;74.70;;;;;;5010877;28;20040;-66
2021/10/03 09:10:17;;;;;;;6.75;4.72;;;36.10;74.00;;;;;;5010244;28;20037;-67
2021/10/03 09:13:39;;;;;;;5.05;4.55;;;37.90;74.10;;;;;;5010775;28;20049;-67
2021/10/03 09:16:43;;;;;;;6.95;4.55;;;34.80;75.80;;;;;;5010837;28;20045;-67
2021/10/03 09:20:07;;;;;;;6.85;4.38;;;37.60;75.10;;;;;;5010365;28;20060;-66
2021/10/03 09:23:21;;;;;;;7.47;4.55;;;37.90;74.10;;;;;;5010828;28;20532;-66
2021/10/03 09:26:26;;;;;;;10.40;4.90;;;36.40;71.30;;;;;;5010474;28;20045;-67
2021/10/03 09:29:36;;;;;;;5.22;4.70;;;35.40;75.00;;;;;;5010205;28;20056;-66
2021/10/03 09:32:56;;;;;;;8.05;4.63;;;37.00;72.80;;;;;;5010558;28;20053;-67
2021/10/03 09:36:01;;;;;;;9.20;4.63;;;35.20;73.80;;;;;;5010425;28;20041;-66
2021/10/03 09:39:08;;;;;;;6.53;5.20;;;35.00;74.80;;;;;;5010336;28;20413;-66
2021/10/03 09:42:15;;;;;;;8.02;4.90;;;31.60;79.70;;;;;;5010626;28;20508;-67
2021/10/03 09:45:24;;;;;;;7.95;4.10;;;35.40;76.70;;;;;;5010493;28;20033;-67
2021/10/03 09:48:29;;;;;;;7.50;4.68;;;37.90;71.80;;;;;;5010431;28;20049;-66
2021/10/03 09:51:34;;;;;;;6.80;4.60;;;38.60;72.30;;;;;;5010448;28;20424;-66
2021/10/03 09:54:37;;;;;;;6.07;4.25;;;35.10;72.30;;;;;;5010404;28;20045;-67
2021/10/03 09:57:43;;;;;;;6.05;4.63;;;36.70;72.60;;;;;;5010623;28;20044;-66
2021/10/03 10:00:47;;;;;;;5.30;4.15;;;34.00;73.00;;;;;;5010464;28;20045;-66
2021/10/03 10:03:52;;;;;;;5.38;3.75;;;34.00;75.40;;;;;;5010636;28;20130;-67
2021/10/03 10:06:59;;;;;;;5.90;4.38;;;35.20;73.80;;;;;;4998204;28;20042;-67
2021/10/03 10:10:07;;;;;;;5.50;3.60;;;36.20;72.90;;;;;;5010299;28;20041;-66
2021/10/03 10:13:15;;;;;;;6.65;4.28;;;34.30;72.10;;;;;;5010482;28;20061;-65
2021/10/03 10:16:29;;;;;;;5.45;4.22;;;34.20;72.80;;;;;;5010388;28;20049;-65
2021/10/03 10:19:36;;;;;;;8.90;3.60;;;33.80;74.70;;;;;;5009762;28;20080;-66
2021/10/03 10:22:52;;;;;;;5.18;3.38;;;35.30;72.20;;;;;;5010060;28;20049;-66
2021/10/03 10:25:58;;;;;;;5.15;3.88;;;35.40;72.00;;;;;;5010353;28;20049;-67
2021/10/03 10:29:03;;;;;;;5.20;3.72;;;31.70;76.20;;;;;;5009889;28;20073;-66
2021/10/03 10:32:10;;;;;;;5.15;4.22;;;34.30;74.20;;;;;;5013581;28;20048;-65
2021/10/03 10:35:14;;;;;;;6.32;4.53;;;32.70;74.60;;;;;;5013609;28;20496;-65
2021/10/03 10:38:20;;;;;;;5.07;4.20;;;33.80;73.60;;;;;;5013247;28;20045;-66
2021/10/03 10:41:36;;;;;;;7.72;5.03;;;32.80;75.40;;;;;;5013181;28;20401;-66
2021/10/03 10:44:41;;;;;;;5.85;4.50;;;33.60;75.10;;;;;;5013535;28;20045;-66
2021/10/03 10:48:14;;;;;;;5.88;4.75;;;35.20;72.40;;;;;;5012919;28;20049;-66
2021/10/03 10:51:19;;;;;;;6.32;4.90;;;34.80;71.20;;;;;;5013713;28;20041;-66
2021/10/03 10:54:23;;;;;;;8.35;5.25;;;35.60;71.40;;;;;;5013560;28;20362;-66
2021/10/03 10:57:32;;;;;;;7.40;4.90;;;34.00;72.50;;;;;;5012520;28;20044;-65
2021/10/03 11:00:47;;;;;;;6.85;4.97;;;29.30;78.80;;;;;;5013078;28;20056;-66
2021/10/03 11:03:54;;;;;;;10.13;5.35;;;31.80;77.40;;;;;;5013329;28;20041;-67
2021/10/03 11:06:58;;;;;;;6.68;4.93;;;31.10;75.40;;;;;;5013166;28;20057;-65
2021/10/03 11:10:03;;;;;;;9.55;5.20;;;31.30;76.20;;;;;;5012682;28;20045;-65
2021/10/03 11:13:41;;;;;;;9.43;5.40;;;31.10;77.00;;;;;;5012647;28;20052;-65
2021/10/03 11:16:47;;;;;;;6.80;5.07;;;28.50;79.40;;;;;;5013178;28;20053;-65
2021/10/03 11:19:51;;;;;;;7.43;5.35;;;28.10;82.30;;;;;;5012834;28;20113;-67
2021/10/03 11:22:56;;;;;;;7.75;5.70;;;27.50;82.70;;;;;;5013001;28;20049;-66
2021/10/03 11:26:01;;;;;;;6.35;4.80;;;28.90;80.90;;;;;;5000782;28;20045;-66
2021/10/03 11:29:06;;;;;;;7.55;4.57;;;30.70;77.20;;;;;;5012663;28;20500;-66
2021/10/03 11:32:13;;;;;;;6.43;3.80;;;33.80;74.60;;;;;;5012734;28;20099;-67
2021/10/03 11:35:17;;;;;;;5.97;4.38;;;33.10;76.00;;;;;;5012743;28;20053;-66
2021/10/03 11:38:21;;;;;;;7.65;4.68;;;35.50;70.90;;;;;;5012731;28;20062;-66
2021/10/03 11:41:27;;;;;;;6.05;4.53;;;32.90;72.00;;;;;;5012074;28;20041;-66
2021/10/03 11:44:31;;;;;;;8.10;4.90;;;34.50;71.90;;;;;;5013284;28;20045;-67
2021/10/03 11:47:40;;;;;;;12.35;4.55;;;31.70;75.10;;;;;;5012912;28;20037;-65
2021/10/03 11:50:45;;;;;;;7.03;4.80;;;31.40;74.10;;;;;;5012631;28;20049;-65
2021/10/03 11:53:49;;;;;;;7.00;5.18;;;32.10;74.00;;;;;;5012692;28;20515;-66
2021/10/03 11:56:53;;;;;;;6.38;5.70;;;32.10;74.90;;;;;;5012153;28;20392;-65
2021/10/03 12:00:07;;;;;;;5.75;5.15;;;30.80;74.70;;;;;;5012036;28;20045;-66
2021/10/03 12:03:12;;;;;;;7.38;5.63;;;30.80;75.90;;;;;;5011738;28;20049;-66
2021/10/03 12:06:22;;;;;;;9.10;5.55;;;31.20;75.10;;;;;;5011760;28;20037;-66
2021/10/03 12:09:28;;;;;;;7.47;5.63;;;31.30;74.80;;;;;;4999558;28;20114;-66
2021/10/03 12:12:52;;;;;;;6.28;4.10;;;31.00;75.60;;;;;;5011640;28;20041;-65
2021/10/03 12:16:17;;;;;;;7.40;4.65;;;31.90;74.40;;;;;;5011755;28;20053;-65
2021/10/03 12:19:21;;;;;;;7.82;4.57;;;32.60;72.70;;;;;;5011278;28;20045;-65
2021/10/03 12:22:25;;;;;;;7.82;5.38;;;31.30;74.80;;;;;;5011401;28;20041;-66
2021/10/03 12:25:40;;;;;;;8.00;5.72;;;30.30;75.60;;;;;;5011522;28;20040;-66
2021/10/03 12:29:06;;;;;;;7.55;5.00;;;29.40;76.60;;;;;;5011003;28;20036;-67
2021/10/03 12:32:11;;;;;;;5.75;4.60;;;32.40;74.10;;;;;;5011535;28;20048;-66
2021/10/03 12:35:15;;;;;;;9.70;5.15;;;31.60;72.10;;;;;;5011536;28;20045;-66
2021/10/03 12:38:19;;;;;;;8.32;6.45;;;30.80;75.00;;;;;;5011069;28;20053;-67
2021/10/03 12:41:23;;;;;;;9.43;5.18;;;33.00;72.80;;;;;;5011243;28;20049;-66
2021/10/03 12:44:31;;;;;;;5.22;4.60;;;34.30;71.90;;;;;;5011413;28;20049;-66
2021/10/03 12:47:39;;;;;;;6.97;4.47;;;33.40;71.00;;;;;;5011305;28;20050;-66
2021/10/03 12:50:44;;;;;;;6.57;4.03;;;32.60;72.00;;;;;;5011393;28;20053;-66
2021/10/03 12:53:50;;;;;;;7.80;4.60;;;34.60;71.10;;;;;;4998642;28;20052;-66
2021/10/03 12:56:56;;;;;;;6.43;4.78;;;33.40;70.60;;;;;;5010899;28;20049;-66
2021/10/03 13:00:00;;;;;;;4.90;4.30;;;35.50;69.20;;;;;;5010721;28;20037;-67
2021/10/03 13:03:04;;;;;;;4.35;3.75;;;34.80;68.40;;;;;;5010902;28;20117;-66
2021/10/03 13:06:09;;;;;;;4.40;4.00;;;34.50;68.70;;;;;;5010955;28;20049;-67
2021/10/03 13:09:13;;;;;;;5.35;3.70;;;36.00;68.20;;;;;;5010528;28;20515;-67
2021/10/03 13:12:17;;;;;;;5.75;4.00;;;37.20;67.30;;;;;;5011066;28;20372;-66
2021/10/03 13:15:21;;;;;;;4.93;3.67;;;37.30;65.80;;;;;;5010848;28;20519;-66
2021/10/03 13:18:25;;;;;;;6.85;4.25;;;36.20;66.90;;;;;;4998517;28;20500;-66
2021/10/03 13:21:30;;;;;;;5.55;4.13;;;36.10;67.30;;;;;;5011097;28;20053;-66
2021/10/03 13:24:34;;;;;;;8.82;4.15;;;35.60;67.40;;;;;;5010859;28;20053;-66
2021/10/03 13:27:40;;;;;;;7.18;3.92;;;35.00;68.10;;;;;;5010691;28;20041;-66
2021/10/03 13:30:44;;;;;;;6.50;4.28;;;33.90;70.30;;;;;;5010969;28;20049;-67
2021/10/03 13:33:48;;;;;;;7.38;4.18;;;34.70;69.20;;;;;;5011028;28;20045;-66
2021/10/03 13:36:52;;;;;;;7.47;4.85;;;34.90;68.00;;;;;;5010937;28;20125;-66
2021/10/03 13:39:56;;;;;;;6.75;4.40;;;34.10;68.80;;;;;;5010099;28;20052;-66
2021/10/03 13:43:00;;;;;;;5.50;4.13;;;34.50;68.90;;;;;;5010621;28;20061;-66
2021/10/03 13:46:05;;;;;;;8.25;3.58;;;33.90;68.90;;;;;;5010710;28;20045;-66
2021/10/03 13:49:09;;;;;;;5.78;4.00;;;35.10;68.20;;;;;;5010310;28;20048;-66
2021/10/03 13:52:13;;;;;;;5.05;3.65;;;35.80;67.90;;;;;;5010652;28;20049;-66
2021/10/03 13:55:17;;;;;;;5.35;3.50;;;36.10;65.80;;;;;;5010780;28;20049;-65
2021/10/03 13:58:22;;;;;;;7.47;4.03;;;34.00;69.10;;;;;;5010010;28;20049;-66
2021/10/03 14:01:26;;;;;;;5.40;4.03;;;32.10;71.80;;;;;;5010348;28;20499;-66
2021/10/03 14:04:30;;;;;;;5.03;4.05;;;32.70;71.40;;;;;;5010543;28;20045;-66
2021/10/03 14:07:35;;;;;;;7.03;4.07;;;32.70;70.40;;;;;;5014406;28;20049;-66
2021/10/03 14:10:39;;;;;;;7.45;4.47;;;30.00;75.00;;;;;;5014417;28;20049;-66
2021/10/03 14:13:43;;;;;;;7.13;3.95;;;30.30;74.60;;;;;;5014024;28;20053;-66
2021/10/03 14:16:46;;;;;;;4.68;3.40;;;31.70;72.30;;;;;;5014493;28;20053;-66
2021/10/03 14:19:51;;;;;;;6.68;3.70;;;32.10;71.40;;;;;;5001537;28;20400;-65
2021/10/03 14:22:56;;;;;;;6.60;3.75;;;32.20;71.60;;;;;;5013950;28;20049;-66
2021/10/03 14:26:02;;;;;;;4.13;3.17;;;32.20;72.00;;;;;;5014184;28;20048;-65
2021/10/03 14:29:06;;;;;;;9.73;3.85;;;31.60;72.20;;;;;;5013623;28;20045;-65
2021/10/03 14:32:10;;;;;;;6.28;3.70;;;30.80;72.60;;;;;;5014442;28;20049;-65
2021/10/03 14:35:15;;;;;;;6.38;4.65;;;30.10;74.60;;;;;;5013657;28;20390;-65
2021/10/03 14:38:19;;;;;;;7.28;3.92;;;27.90;78.50;;;;;;5000900;28;20057;-65
2021/10/03 14:41:24;;;;;;;3.97;3.50;;;29.00;77.30;;;;;;5013701;28;20061;-65
2021/10/03 14:44:28;;;;;;;5.05;3.53;;;30.20;75.20;;;;;;5013570;28;20049;-66
2021/10/03 14:47:32;;;;;;;5.45;4.18;;;30.00;75.10;;;;;;5013811;28;20053;-65
2021/10/03 14:50:36;;;;;;;6.13;4.20;;;29.80;75.80;;;;;;5013253;28;20396;-66
2021/10/03 14:53:42;;;;;;;6.90;4.00;;;29.20;76.80;;;;;;5013290;28;20548;-65
2021/10/03 14:56:47;;;;;;;5.78;4.03;;;28.40;78.90;;;;;;5013558;28;20045;-65
2021/10/03 14:59:51;;;;;;;6.85;3.90;;;28.30;79.40;;;;;;5001024;28;20045;-65
2021/10/03 15:02:55;;;;;;;6.32;3.88;;;27.50;80.20;;;;;;5013037;28;20045;-66
2021/10/03 15:05:59;;;;;;;6.82;3.88;;;27.20;80.90;;;;;;5013248;28;20049;-66
2021/10/03 15:09:06;;;;;;;4.65;3.67;;;27.30;80.70;;;;;;5012870;28;20041;-66
2021/10/03 15:12:11;;;;;;;5.72;3.95;;;26.80;81.60;;;;;;5012890;28;20056;-66
2021/10/03 15:15:16;;;;;;;6.35;4.32;;;26.20;83.10;;;;;;4989613;28;20507;-66
2021/10/03 15:18:23;;;;;;;8.15;4.22;;;26.10;84.20;;;;;;5012840;28;20385;-66
2021/10/03 15:21:27;;;;;;;7.30;3.97;;;25.90;84.20;;;;;;5012594;28;20045;-66
2021/10/03 15:24:31;;;;;;;9.05;4.55;;;25.70;84.40;;;;;;5012686;28;20045;-67
2021/10/03 15:27:35;;;;;;;6.40;4.40;;;25.60;84.90;;;;;;5013050;28;20041;-66
2021/10/03 15:30:42;;;;;;;8.27;5.25;;;25.40;85.10;;;;;;5012937;28;20128;-66
2021/10/03 15:33:46;;;;;;;10.13;5.50;;;25.40;85.70;;;;;;5012437;28;20048;-66
2021/10/03 15:36:51;;;;;;;7.60;5.18;;;25.40;87.10;;;;;;5012266;28;20053;-66
2021/10/03 15:39:55;;;;;;;8.55;5.25;;;25.30;86.90;;;;;;5011946;28;20049;-66
2021/10/03 15:42:59;;;;;;;11.82;6.85;;;25.20;86.90;;;;;;5012185;28;20528;-66
2021/10/03 15:46:03;;;;;;;10.57;7.00;;;25.00;87.70;;;;;;5012365;28;20068;-67
2021/10/03 15:49:07;;;;;;;10.38;6.30;;;24.90;87.90;;;;;;5012074;28;20037;-66
2021/10/03 15:52:11;;;;;;;7.82;5.35;;;24.70;88.90;;;;;;4999990;28;20400;-66
2021/10/03 15:55:15;;;;;;;7.38;4.30;;;24.40;89.90;;;;;;5012207;28;20057;-65